Connelsville, Missouri
Current Conditions -  °F | °C
As of 1:55 AM on Monday 26 Jan 2015 (Local Time) from KIRK Reporting Station
Overcast Overcast  
Wind Chill: 30°   Ceiling: 2000
Heat Index: 30°   Visibility: 10mi
Dew Point: 26°   Wind: 0mph
Humidity: 85%   Direction: NA
Pressure: 30.06"   Gusts: NA
Location:  40.2969°N, 92.7524°W
Report Text: KIRK 260755Z AUTO 00000KT 10SM OVC020 M01/M03 A3006 RMK AO2 SLP192 T10111033 $
Loading
Personal Weather Stations






























Interactive Weather Map New forecast layout! Learn more

10-Day Weather Forecast

Advertisements
Track Severe Weather on mobile